createdAt,value
2023-07-03T00:00:26.176Z,16.76
2023-07-03T00:03:11.260Z,16.74
2023-07-03T00:05:56.022Z,16.73
2023-07-03T00:08:41.072Z,16.60
2023-07-03T00:11:25.887Z,16.68
2023-07-03T00:14:10.768Z,16.66
2023-07-03T00:16:55.644Z,16.67
2023-07-03T00:19:40.589Z,16.56
2023-07-03T00:22:25.508Z,16.58
2023-07-03T00:25:10.410Z,16.58
2023-07-03T00:27:55.334Z,16.40
2023-07-03T00:30:40.243Z,16.35
2023-07-03T00:33:25.450Z,16.25
2023-07-03T00:36:10.365Z,16.24
2023-07-03T00:38:55.284Z,16.15
2023-07-03T00:41:40.305Z,16.05
2023-07-03T00:44:25.450Z,16.15
2023-07-03T00:47:10.446Z,16.05
2023-07-03T00:49:55.429Z,16.11
2023-07-03T00:52:40.422Z,16.14
2023-07-03T00:55:25.373Z,16.08
2023-07-03T00:58:10.516Z,15.98
2023-07-03T01:00:55.262Z,16.09
2023-07-03T01:03:40.305Z,16.16
2023-07-03T01:06:25.176Z,16.11
2023-07-03T01:09:10.245Z,16.01
2023-07-03T01:11:55.311Z,15.97
2023-07-03T01:14:40.338Z,16.08
2023-07-03T01:17:25.209Z,16.01
2023-07-03T01:20:10.080Z,16.10
2023-07-03T01:22:54.986Z,16.11
2023-07-03T01:25:39.943Z,16.04
2023-07-03T01:28:24.950Z,16.03
2023-07-03T01:31:09.873Z,16.05
2023-07-03T01:33:54.861Z,15.97
2023-07-03T01:36:39.822Z,16.06
2023-07-03T01:39:24.773Z,15.96
2023-07-03T01:42:09.799Z,15.98
2023-07-03T01:44:54.653Z,16.04
2023-07-03T01:47:39.511Z,16.06
2023-07-03T01:50:24.430Z,16.03
2023-07-03T01:53:09.471Z,15.99
2023-07-03T01:55:54.343Z,16.02
2023-07-03T01:58:39.322Z,15.96
2023-07-03T02:01:24.294Z,15.89
2023-07-03T02:04:09.214Z,15.82
2023-07-03T02:06:54.088Z,16.02
2023-07-03T02:09:38.943Z,15.92
2023-07-03T02:12:24.165Z,15.99
2023-07-03T02:15:09.038Z,16.03
2023-07-03T02:17:54.058Z,16.07
2023-07-03T02:20:38.882Z,15.99
2023-07-03T02:23:23.712Z,16.10
2023-07-03T02:26:08.659Z,16.04
2023-07-03T02:28:53.492Z,15.99
2023-07-03T02:31:38.471Z,16.07
2023-07-03T02:34:23.453Z,16.13
2023-07-03T02:37:08.480Z,15.91
2023-07-03T02:39:53.428Z,15.96
2023-07-03T02:42:44.493Z,15.97
2023-07-03T02:45:29.505Z,15.94
2023-07-03T02:48:14.628Z,15.90
2023-07-03T02:50:59.522Z,15.89
2023-07-03T02:53:44.706Z,15.94
2023-07-03T02:56:29.559Z,15.97
2023-07-03T02:59:14.718Z,15.97
2023-07-03T03:01:59.649Z,15.93
2023-07-03T03:04:44.728Z,15.98
2023-07-03T03:07:29.710Z,15.97
2023-07-03T03:10:14.541Z,16.04
2023-07-03T03:12:59.461Z,16.04
2023-07-03T03:15:44.362Z,16.04
2023-07-03T03:18:29.384Z,15.98
2023-07-03T03:21:14.244Z,15.81
2023-07-03T03:23:59.282Z,15.98
2023-07-03T03:26:44.145Z,16.00
2023-07-03T03:29:29.131Z,16.03
2023-07-03T03:32:14.146Z,16.05
2023-07-03T03:34:59.032Z,15.94
2023-07-03T03:37:44.061Z,15.98
2023-07-03T03:40:28.843Z,16.02
2023-07-03T03:43:13.761Z,16.01
2023-07-03T03:45:58.624Z,16.13
2023-07-03T03:48:43.641Z,16.10
2023-07-03T03:51:28.527Z,16.10
2023-07-03T03:54:13.383Z,16.09
2023-07-03T03:56:58.381Z,16.09
2023-07-03T03:59:43.206Z,16.10
2023-07-03T04:02:28.381Z,16.08
2023-07-03T04:05:13.290Z,16.12
2023-07-03T04:07:58.852Z,16.14
2023-07-03T04:10:43.620Z,16.13
2023-07-03T04:13:28.496Z,16.09
2023-07-03T04:16:13.461Z,16.13
2023-07-03T04:18:58.263Z,16.09
2023-07-03T04:21:43.376Z,16.15
2023-07-03T04:24:28.259Z,16.14
2023-07-03T04:27:13.316Z,16.12
2023-07-03T04:29:58.227Z,16.13
2023-07-03T04:32:43.437Z,16.17
2023-07-03T04:35:28.370Z,16.21
2023-07-03T04:38:13.308Z,16.23
2023-07-03T04:40:58.274Z,16.21
2023-07-03T04:43:43.136Z,16.24
2023-07-03T04:46:28.246Z,16.24
2023-07-03T04:49:13.233Z,16.23
2023-07-03T04:51:58.184Z,16.29
2023-07-03T04:54:42.861Z,16.27
2023-07-03T04:57:27.862Z,16.34
2023-07-03T05:00:12.613Z,16.39
2023-07-03T05:02:57.738Z,16.42
2023-07-03T05:05:42.677Z,16.44
2023-07-03T05:08:27.624Z,16.44
2023-07-03T05:11:12.724Z,16.50
2023-07-03T05:13:57.767Z,16.47
2023-07-03T05:16:42.772Z,16.49
2023-07-03T05:19:27.605Z,16.52
2023-07-03T05:22:12.487Z,16.48
2023-07-03T05:24:57.532Z,16.45
2023-07-03T05:27:42.364Z,16.43
2023-07-03T05:30:27.495Z,16.40
2023-07-03T05:33:12.335Z,16.43
2023-07-03T05:35:57.503Z,16.39
2023-07-03T05:38:42.187Z,16.42
2023-07-03T05:41:27.173Z,16.45
2023-07-03T05:44:12.093Z,16.48
2023-07-03T05:46:57.139Z,16.47
2023-07-03T05:49:41.977Z,16.52
2023-07-03T05:52:26.876Z,16.55
2023-07-03T05:55:11.873Z,16.60
2023-07-03T05:57:56.727Z,16.69
2023-07-03T06:00:41.854Z,16.64
2023-07-03T06:03:26.749Z,16.67
2023-07-03T06:06:11.680Z,16.71
2023-07-03T06:08:56.583Z,16.85
2023-07-03T06:11:41.438Z,16.88
2023-07-03T06:14:26.341Z,17.00
2023-07-03T06:17:11.212Z,16.98
2023-07-03T06:19:56.285Z,17.15
2023-07-03T06:22:41.264Z,17.36
2023-07-03T06:25:26.233Z,17.28
2023-07-03T06:28:11.169Z,17.43
2023-07-03T06:30:56.137Z,17.42
2023-07-03T06:33:40.975Z,17.39
2023-07-03T06:36:25.937Z,17.40
2023-07-03T06:39:10.793Z,17.54
2023-07-03T06:41:55.695Z,17.67
2023-07-03T06:44:40.744Z,17.75
2023-07-03T06:47:25.639Z,17.75
2023-07-03T06:50:10.435Z,17.87
2023-07-03T06:52:55.481Z,17.93
2023-07-03T06:55:40.413Z,17.94
2023-07-03T06:58:25.308Z,17.90
2023-07-03T07:01:10.241Z,17.77
2023-07-03T07:03:55.197Z,17.70
2023-07-03T07:06:40.067Z,17.52
2023-07-03T07:09:25.068Z,17.56
2023-07-03T07:12:09.978Z,17.73
2023-07-03T07:14:54.844Z,17.79
2023-07-03T07:17:50.947Z,17.79
2023-07-03T07:20:37.075Z,17.93
2023-07-03T07:23:21.939Z,18.01
2023-07-03T07:26:06.946Z,18.05
2023-07-03T07:28:51.857Z,18.22
2023-07-03T07:31:38.321Z,18.35
2023-07-03T07:34:24.864Z,18.38
2023-07-03T07:37:09.626Z,18.49
2023-07-03T07:39:54.564Z,18.65
2023-07-03T07:42:39.454Z,18.80
2023-07-03T07:45:24.571Z,18.85
2023-07-03T07:48:09.435Z,18.98
2023-07-03T07:50:54.392Z,19.18
2023-07-03T07:53:39.459Z,19.17
2023-07-03T07:56:24.332Z,19.23
2023-07-03T07:59:09.480Z,19.40
2023-07-03T08:01:54.436Z,19.29
2023-07-03T08:04:39.442Z,19.47
2023-07-03T08:07:24.661Z,19.52
2023-07-03T08:10:09.668Z,19.50
2023-07-03T08:12:54.668Z,19.54
2023-07-03T08:15:39.678Z,19.52
2023-07-03T08:18:24.778Z,19.81
2023-07-03T08:21:09.750Z,19.71
2023-07-03T08:23:54.630Z,19.80
2023-07-03T08:26:39.544Z,20.01
2023-07-03T08:29:24.549Z,20.10
2023-07-03T08:32:09.530Z,20.26
2023-07-03T08:37:42.362Z,20.32
2023-07-03T08:40:27.310Z,20.56
2023-07-03T08:43:12.241Z,20.66
2023-07-03T08:45:57.168Z,20.40
2023-07-03T08:48:42.068Z,20.46
2023-07-03T08:51:27.015Z,20.76
2023-07-03T08:54:11.890Z,21.14
2023-07-03T08:56:56.667Z,21.19
2023-07-03T08:59:41.447Z,21.43
2023-07-03T09:02:26.612Z,21.48
2023-07-03T09:05:11.467Z,21.48
2023-07-03T09:07:56.368Z,21.62
2023-07-03T09:10:41.155Z,21.48
2023-07-03T09:13:26.065Z,21.72
2023-07-03T09:16:10.869Z,21.84
2023-07-03T09:18:56.264Z,21.75
2023-07-03T09:21:41.524Z,22.05
2023-07-03T09:24:26.413Z,22.01
2023-07-03T09:27:11.234Z,22.14
2023-07-03T09:29:56.010Z,22.09
2023-07-03T09:32:40.942Z,22.12
2023-07-03T09:35:26.786Z,22.13
2023-07-03T09:38:11.860Z,22.44
2023-07-03T09:40:59.565Z,22.53
2023-07-03T09:43:44.848Z,22.59
2023-07-03T09:46:29.841Z,22.70
2023-07-03T09:49:14.764Z,22.80
2023-07-03T09:51:59.734Z,22.99
2023-07-03T09:54:44.694Z,23.08
2023-07-03T09:57:29.544Z,23.24
2023-07-03T10:00:14.541Z,23.26
2023-07-03T10:08:35.329Z,23.50
2023-07-03T10:11:20.454Z,23.49
2023-07-03T10:14:05.437Z,23.52
2023-07-03T10:16:50.307Z,23.41
2023-07-03T10:19:35.322Z,23.57
2023-07-03T10:22:20.280Z,23.62
2023-07-03T10:25:05.172Z,23.85
2023-07-03T10:27:50.103Z,23.94
2023-07-03T10:30:35.027Z,24.09
2023-07-03T10:33:20.017Z,24.22
2023-07-03T10:36:05.822Z,24.16
2023-07-03T10:38:51.064Z,24.06
2023-07-03T10:41:36.048Z,23.93
2023-07-03T10:44:21.054Z,24.06
2023-07-03T10:47:06.105Z,24.28
2023-07-03T10:49:51.048Z,24.45
2023-07-03T10:52:36.094Z,24.44
2023-07-03T10:55:20.923Z,24.72
2023-07-03T10:58:05.861Z,24.02
2023-07-03T11:00:50.754Z,24.09
2023-07-03T11:03:35.721Z,24.39
2023-07-03T11:06:20.553Z,24.45
2023-07-03T11:09:05.513Z,24.23
2023-07-03T11:11:50.493Z,24.41
2023-07-03T11:14:35.497Z,24.51
2023-07-03T11:17:20.455Z,24.58
2023-07-03T11:20:05.448Z,24.61
2023-07-03T11:22:50.373Z,24.62
2023-07-03T11:25:35.162Z,24.43
2023-07-03T11:28:20.583Z,24.69
2023-07-03T11:31:05.643Z,24.91
2023-07-03T11:36:50.111Z,24.80
2023-07-03T11:45:15.053Z,24.74
2023-07-03T11:47:59.899Z,24.77
2023-07-03T11:50:44.855Z,24.87
2023-07-03T11:53:29.890Z,24.94
2023-07-03T11:56:14.764Z,25.11
2023-07-03T11:59:00.341Z,25.06
2023-07-03T12:01:46.670Z,25.07
2023-07-03T12:04:31.626Z,25.22
2023-07-03T12:07:16.557Z,25.29
2023-07-03T12:10:01.509Z,24.94
2023-07-03T12:12:46.404Z,25.16
2023-07-03T12:15:31.423Z,25.19
2023-07-03T12:18:16.468Z,25.43
2023-07-03T12:21:01.461Z,25.59
2023-07-03T12:23:49.045Z,25.69
2023-07-03T12:26:34.320Z,25.85
2023-07-03T12:29:21.193Z,25.95
2023-07-03T12:32:07.354Z,25.96
2023-07-03T12:34:52.257Z,25.79
2023-07-03T12:37:37.169Z,25.79
2023-07-03T12:40:22.188Z,25.53
2023-07-03T12:43:07.158Z,25.78
2023-07-03T12:45:52.452Z,25.82
2023-07-03T12:48:37.710Z,25.68
2023-07-03T12:51:22.556Z,25.87
2023-07-03T12:54:07.414Z,25.87
2023-07-03T12:56:52.372Z,25.63
2023-07-03T12:59:37.253Z,25.81
2023-07-03T13:02:22.581Z,25.79
2023-07-03T13:05:07.841Z,25.83
2023-07-03T13:07:52.641Z,25.86
2023-07-03T13:10:37.631Z,26.02
2023-07-03T13:13:22.530Z,25.87
2023-07-03T13:16:07.393Z,25.88
2023-07-03T13:18:52.179Z,25.98
2023-07-03T13:21:37.084Z,26.03
2023-07-03T13:24:22.103Z,26.05
2023-07-03T13:27:07.045Z,25.83
2023-07-03T13:29:52.095Z,26.00
2023-07-03T13:32:37.076Z,25.98
2023-07-03T13:35:22.041Z,26.13
2023-07-03T13:38:06.922Z,25.94
2023-07-03T13:40:51.891Z,25.99
2023-07-03T13:43:36.723Z,26.18
2023-07-03T13:46:21.665Z,26.17
2023-07-03T13:49:06.499Z,25.93
2023-07-03T13:51:51.386Z,26.09
2023-07-03T13:54:36.346Z,26.24
2023-07-03T13:57:21.203Z,26.24
2023-07-03T14:00:06.282Z,26.09
2023-07-03T14:02:51.246Z,26.23
2023-07-03T14:05:36.082Z,26.37
2023-07-03T14:08:20.841Z,26.40
2023-07-03T14:11:05.738Z,26.40
2023-07-03T14:13:50.711Z,26.48
2023-07-03T14:16:35.629Z,26.49
2023-07-03T14:19:20.617Z,26.56
2023-07-03T14:22:05.519Z,26.43
2023-07-03T14:24:50.440Z,26.45
2023-07-03T14:27:35.380Z,26.17
2023-07-03T14:30:20.366Z,26.26
2023-07-03T14:33:05.378Z,26.16
2023-07-03T14:35:50.773Z,26.21
2023-07-03T14:38:36.067Z,26.25
2023-07-03T14:41:20.867Z,26.35
2023-07-03T14:44:06.022Z,26.39
2023-07-03T14:46:51.034Z,26.40
2023-07-03T14:49:35.978Z,26.48
2023-07-03T14:52:20.930Z,26.46
2023-07-03T14:55:05.937Z,26.55
2023-07-03T14:57:50.879Z,26.56
2023-07-03T15:00:35.661Z,26.54
2023-07-03T15:03:20.982Z,26.44
2023-07-03T15:06:06.066Z,26.52
2023-07-03T15:08:51.220Z,26.47
2023-07-03T15:11:36.043Z,26.46
2023-07-03T15:14:21.839Z,26.30
2023-07-03T15:17:06.727Z,26.35
2023-07-03T15:19:52.029Z,26.49
2023-07-03T15:22:37.208Z,26.62
2023-07-03T15:25:22.129Z,26.71
2023-07-03T15:28:07.130Z,26.75
2023-07-03T15:30:52.125Z,26.73
2023-07-03T15:33:36.798Z,26.49
2023-07-03T15:36:21.734Z,26.37
2023-07-03T15:39:06.556Z,26.30
2023-07-03T15:41:51.457Z,26.24
2023-07-03T15:44:36.263Z,26.04
2023-07-03T15:47:21.564Z,25.82
2023-07-03T15:50:06.688Z,25.74
2023-07-03T15:52:51.596Z,25.69
2023-07-03T15:55:36.573Z,25.69
2023-07-03T15:58:21.533Z,25.59
2023-07-03T16:01:07.979Z,25.59
2023-07-03T16:03:53.868Z,25.55
2023-07-03T16:06:38.830Z,25.45
2023-07-03T16:09:23.683Z,25.41
2023-07-03T16:12:08.792Z,25.23
2023-07-03T16:14:53.618Z,25.24
2023-07-03T16:17:38.411Z,24.97
2023-07-03T16:20:23.386Z,24.87
2023-07-03T16:23:08.260Z,24.94
2023-07-03T16:25:53.284Z,24.78
2023-07-03T16:28:38.268Z,24.71
2023-07-03T16:31:23.157Z,24.73
2023-07-03T16:34:08.208Z,24.67
2023-07-03T16:36:53.188Z,24.36
2023-07-03T16:39:37.852Z,24.30
2023-07-03T16:42:22.887Z,24.24
2023-07-03T16:45:07.720Z,24.26
2023-07-03T16:47:52.788Z,24.13
2023-07-03T16:50:37.787Z,23.95
2023-07-03T16:53:22.715Z,23.89
2023-07-03T16:56:07.599Z,24.00
2023-07-03T16:58:52.417Z,23.94
2023-07-03T17:01:37.516Z,23.89
2023-07-03T17:04:22.302Z,23.79
2023-07-03T17:07:07.288Z,23.81
2023-07-03T17:09:52.271Z,23.81
2023-07-03T17:12:37.255Z,23.81
2023-07-03T17:15:22.181Z,23.70
2023-07-03T17:18:07.118Z,23.65
2023-07-03T17:20:52.061Z,23.57
2023-07-03T17:23:36.964Z,23.45
2023-07-03T17:26:22.036Z,23.19
2023-07-03T17:29:06.923Z,23.17
2023-07-03T17:31:51.968Z,23.12
2023-07-03T17:34:36.801Z,23.19
2023-07-03T17:37:21.755Z,23.05
2023-07-03T17:40:07.005Z,23.07
2023-07-03T17:42:51.902Z,23.05
2023-07-03T17:45:36.880Z,22.92
2023-07-03T17:48:21.592Z,22.88
2023-07-03T17:51:06.686Z,22.79
2023-07-03T17:53:51.390Z,22.77
2023-07-03T17:56:36.506Z,22.67
2023-07-03T17:59:21.698Z,22.62
2023-07-03T18:02:06.437Z,22.58
2023-07-03T18:04:51.348Z,22.48
2023-07-03T18:07:36.261Z,22.39
2023-07-03T18:10:20.954Z,22.28
2023-07-03T18:13:05.704Z,22.27
2023-07-03T18:15:50.805Z,22.22
2023-07-03T18:18:35.517Z,22.08
2023-07-03T18:21:20.403Z,22.09
2023-07-03T18:24:05.495Z,22.01
2023-07-03T18:26:50.405Z,22.01
2023-07-03T18:29:35.426Z,21.86
2023-07-03T18:32:20.328Z,21.82
2023-07-03T18:35:05.393Z,21.48
2023-07-03T18:37:50.226Z,21.56
2023-07-03T18:40:35.187Z,21.35
2023-07-03T18:43:20.115Z,21.35
2023-07-03T18:46:05.120Z,21.25
2023-07-03T18:48:50.043Z,21.23
2023-07-03T18:51:36.354Z,21.10
2023-07-03T18:54:22.394Z,20.98
2023-07-03T18:57:07.378Z,20.88
2023-07-03T18:59:52.431Z,20.89
2023-07-03T19:02:37.274Z,20.82
2023-07-03T19:05:22.217Z,20.72
2023-07-03T19:08:07.292Z,20.47
2023-07-03T19:10:52.139Z,20.50
2023-07-03T19:13:37.169Z,20.35
2023-07-03T19:16:21.936Z,20.30
2023-07-03T19:19:06.742Z,20.21
2023-07-03T19:21:51.694Z,20.07
2023-07-03T19:24:36.623Z,19.98
2023-07-03T19:27:21.648Z,19.98
2023-07-03T19:30:06.560Z,19.92
2023-07-03T19:32:51.547Z,19.88
2023-07-03T19:35:36.295Z,19.87
2023-07-03T19:38:21.457Z,19.87
2023-07-03T19:41:06.539Z,19.75
2023-07-03T19:43:51.495Z,19.69
2023-07-03T19:46:36.231Z,19.62
2023-07-03T19:49:21.202Z,19.64
2023-07-03T19:52:06.229Z,19.58
2023-07-03T19:54:51.118Z,19.53
2023-07-03T19:57:36.134Z,19.40
2023-07-03T20:00:21.285Z,19.35
2023-07-03T20:03:06.387Z,19.27
2023-07-03T20:05:51.292Z,19.29
2023-07-03T20:08:36.583Z,19.19
2023-07-03T20:11:21.580Z,18.89
2023-07-03T20:14:06.613Z,18.93
2023-07-03T20:16:51.880Z,18.91
2023-07-03T20:19:36.771Z,18.93
2023-07-03T20:22:21.844Z,18.81
2023-07-03T20:25:06.763Z,18.75
2023-07-03T20:27:51.866Z,18.78
2023-07-03T20:30:36.765Z,18.73
2023-07-03T20:33:21.634Z,18.63
2023-07-03T20:36:06.623Z,18.59
2023-07-03T20:38:51.369Z,18.39
2023-07-03T20:41:36.468Z,18.30
2023-07-03T20:44:21.312Z,18.18
2023-07-03T20:47:06.337Z,18.18
2023-07-03T20:49:51.271Z,18.22
2023-07-03T20:52:36.185Z,18.26
2023-07-03T20:55:21.022Z,18.20
2023-07-03T20:58:05.957Z,18.25
2023-07-03T21:00:51.038Z,18.21
2023-07-03T21:03:36.157Z,18.22
2023-07-03T21:06:21.164Z,18.14
2023-07-03T21:09:05.875Z,18.18
2023-07-03T21:11:50.753Z,18.08
2023-07-03T21:14:35.690Z,18.06
2023-07-03T21:17:20.705Z,17.99
2023-07-03T21:20:05.475Z,18.04
2023-07-03T21:22:50.430Z,18.02
2023-07-03T21:25:35.874Z,18.02
2023-07-03T21:28:21.375Z,18.00
2023-07-03T21:31:06.166Z,18.01
2023-07-03T21:33:51.021Z,17.85
2023-07-03T21:36:35.902Z,17.77
2023-07-03T21:39:20.715Z,17.82
2023-07-03T21:42:05.859Z,17.84
2023-07-03T21:44:50.549Z,17.70
2023-07-03T21:47:35.729Z,17.72
2023-07-03T21:50:22.597Z,17.76
2023-07-03T21:53:07.679Z,17.57
2023-07-03T21:55:52.707Z,17.61
2023-07-03T21:58:37.998Z,17.57
2023-07-03T22:01:24.793Z,17.55
2023-07-03T22:04:11.109Z,17.50
2023-07-03T22:06:55.956Z,17.47
2023-07-03T22:09:40.935Z,17.34
2023-07-03T22:12:25.723Z,17.27
2023-07-03T22:15:10.635Z,17.29
2023-07-03T22:17:55.619Z,17.12
2023-07-03T22:20:40.417Z,17.13
2023-07-03T22:23:31.975Z,17.07
2023-07-03T22:26:17.338Z,17.00
2023-07-03T22:29:02.396Z,17.04
2023-07-03T22:31:47.351Z,17.03
2023-07-03T22:34:32.280Z,16.91
2023-07-03T22:37:17.327Z,17.01
2023-07-03T22:40:02.257Z,17.09
2023-07-03T22:42:47.193Z,17.03
2023-07-03T22:45:32.214Z,16.94
2023-07-03T22:48:17.364Z,16.85
2023-07-03T22:51:02.869Z,16.90
2023-07-03T22:53:47.489Z,16.85
2023-07-03T22:56:32.366Z,16.76
2023-07-03T22:59:17.217Z,16.79
2023-07-03T23:02:02.237Z,16.83
2023-07-03T23:04:47.054Z,16.83
2023-07-03T23:07:31.931Z,16.80
2023-07-03T23:10:16.867Z,16.83
2023-07-03T23:13:01.736Z,16.80
2023-07-03T23:15:46.676Z,16.67
2023-07-03T23:18:31.661Z,16.71
2023-07-03T23:21:16.469Z,16.72
2023-07-03T23:24:01.351Z,16.70
2023-07-03T23:26:46.365Z,16.64
2023-07-03T23:29:31.155Z,16.60
2023-07-03T23:32:16.045Z,16.41
2023-07-03T23:35:01.028Z,16.33
2023-07-03T23:37:45.900Z,16.43
2023-07-03T23:40:30.925Z,16.41
2023-07-03T23:43:15.917Z,16.35
2023-07-03T23:46:01.138Z,16.39
2023-07-03T23:48:45.968Z,16.37
2023-07-03T23:51:30.864Z,16.39
2023-07-03T23:54:15.858Z,16.36
2023-07-03T23:57:00.715Z,16.38
2023-07-03T23:59:45.671Z,16.33
